sensor_id;sensor_type;location;lat;lon;timestamp;P1;durP1;ratioP1;P2;durP2;ratioP2
67500;SDS011;54349;52.528;19.760;2022-12-29T00:01:07;4.40;;;2.70;;
67500;SDS011;54349;52.528;19.760;2022-12-29T00:03:36;6.10;;;2.80;;
67500;SDS011;54349;52.528;19.760;2022-12-29T00:06:05;4.70;;;2.60;;
67500;SDS011;54349;52.528;19.760;2022-12-29T00:08:35;5.80;;;2.70;;
67500;SDS011;54349;52.528;19.760;2022-12-29T00:11:16;4.00;;;2.50;;
67500;SDS011;54349;52.528;19.760;2022-12-29T00:13:48;5.80;;;2.90;;
67500;SDS011;54349;52.528;19.760;2022-12-29T00:16:38;5.30;;;2.50;;
67500;SDS011;54349;52.528;19.760;2022-12-29T00:19:12;4.50;;;2.60;;
67500;SDS011;54349;52.528;19.760;2022-12-29T00:22:00;5.00;;;2.60;;
67500;SDS011;54349;52.528;19.760;2022-12-29T00:24:48;4.90;;;2.50;;
67500;SDS011;54349;52.528;19.760;2022-12-29T00:27:35;3.90;;;2.30;;
67500;SDS011;54349;52.528;19.760;2022-12-29T00:30:26;5.90;;;2.40;;
67500;SDS011;54349;52.528;19.760;2022-12-29T00:33:17;6.10;;;2.60;;
67500;SDS011;54349;52.528;19.760;2022-12-29T00:38:51;4.60;;;2.50;;
67500;SDS011;54349;52.528;19.760;2022-12-29T00:41:41;5.00;;;2.20;;
67500;SDS011;54349;52.528;19.760;2022-12-29T00:44:31;5.00;;;2.60;;
67500;SDS011;54349;52.528;19.760;2022-12-29T00:46:59;5.00;;;2.70;;
67500;SDS011;54349;52.528;19.760;2022-12-29T00:49:33;5.40;;;2.70;;
67500;SDS011;54349;52.528;19.760;2022-12-29T00:52:05;4.40;;;2.40;;
67500;SDS011;54349;52.528;19.760;2022-12-29T00:54:38;4.60;;;2.50;;
67500;SDS011;54349;52.528;19.760;2022-12-29T00:57:09;4.50;;;2.40;;
67500;SDS011;54349;52.528;19.760;2022-12-29T00:59:41;5.20;;;2.60;;
67500;SDS011;54349;52.528;19.760;2022-12-29T01:02:15;4.10;;;2.30;;
67500;SDS011;54349;52.528;19.760;2022-12-29T01:04:45;4.50;;;2.50;;
67500;SDS011;54349;52.528;19.760;2022-12-29T01:07:16;4.60;;;2.40;;
67500;SDS011;54349;52.528;19.760;2022-12-29T01:09:45;4.60;;;2.40;;
67500;SDS011;54349;52.528;19.760;2022-12-29T01:12:34;4.30;;;2.40;;
67500;SDS011;54349;52.528;19.760;2022-12-29T01:15:13;4.20;;;2.20;;
67500;SDS011;54349;52.528;19.760;2022-12-29T01:17:42;4.20;;;2.30;;
67500;SDS011;54349;52.528;19.760;2022-12-29T01:20:12;5.30;;;2.10;;
67500;SDS011;54349;52.528;19.760;2022-12-29T01:22:42;4.10;;;2.10;;
67500;SDS011;54349;52.528;19.760;2022-12-29T01:25:13;3.80;;;2.20;;
67500;SDS011;54349;52.528;19.760;2022-12-29T01:27:41;4.50;;;2.40;;
67500;SDS011;54349;52.528;19.760;2022-12-29T01:30:10;3.90;;;2.10;;
67500;SDS011;54349;52.528;19.760;2022-12-29T01:32:39;5.40;;;2.60;;
67500;SDS011;54349;52.528;19.760;2022-12-29T01:35:08;4.10;;;2.10;;
67500;SDS011;54349;52.528;19.760;2022-12-29T01:37:36;4.70;;;2.20;;
67500;SDS011;54349;52.528;19.760;2022-12-29T01:40:05;3.40;;;2.00;;
67500;SDS011;54349;52.528;19.760;2022-12-29T01:42:34;4.20;;;2.30;;
67500;SDS011;54349;52.528;19.760;2022-12-29T01:45:09;4.00;;;2.30;;
67500;SDS011;54349;52.528;19.760;2022-12-29T01:47:48;4.20;;;2.20;;
67500;SDS011;54349;52.528;19.760;2022-12-29T01:50:29;3.70;;;2.20;;
67500;SDS011;54349;52.528;19.760;2022-12-29T01:53:12;4.90;;;2.10;;
67500;SDS011;54349;52.528;19.760;2022-12-29T01:55:50;4.50;;;2.10;;
67500;SDS011;54349;52.528;19.760;2022-12-29T01:58:24;3.90;;;2.10;;
67500;SDS011;54349;52.528;19.760;2022-12-29T02:00:59;4.50;;;2.10;;
67500;SDS011;54349;52.528;19.760;2022-12-29T02:03:29;3.50;;;2.00;;
67500;SDS011;54349;52.528;19.760;2022-12-29T02:06:08;3.40;;;2.00;;
67500;SDS011;54349;52.528;19.760;2022-12-29T02:08:46;4.00;;;2.20;;
67500;SDS011;54349;52.528;19.760;2022-12-29T02:11:17;4.80;;;2.20;;
67500;SDS011;54349;52.528;19.760;2022-12-29T02:13:45;4.10;;;2.20;;
67500;SDS011;54349;52.528;19.760;2022-12-29T02:19:51;3.90;;;2.20;;
67500;SDS011;54349;52.528;19.760;2022-12-29T02:32:21;5.00;;;2.70;;
67500;SDS011;54349;52.528;19.760;2022-12-29T02:40:48;5.90;;;2.70;;
67500;SDS011;54349;52.528;19.760;2022-12-29T02:43:29;4.30;;;2.50;;
67500;SDS011;54349;52.528;19.760;2022-12-29T02:49:15;5.00;;;2.70;;
67500;SDS011;54349;52.528;19.760;2022-12-29T02:52:07;4.50;;;2.50;;
67500;SDS011;54349;52.528;19.760;2022-12-29T02:54:53;5.70;;;2.40;;
67500;SDS011;54349;52.528;19.760;2022-12-29T02:59:58;4.40;;;2.40;;
67500;SDS011;54349;52.528;19.760;2022-12-29T03:13:48;4.90;;;2.40;;
67500;SDS011;54349;52.528;19.760;2022-12-29T03:16:48;4.60;;;2.50;;
67500;SDS011;54349;52.528;19.760;2022-12-29T03:19:26;4.70;;;2.40;;
67500;SDS011;54349;52.528;19.760;2022-12-29T03:22:04;5.00;;;2.60;;
67500;SDS011;54349;52.528;19.760;2022-12-29T03:25:15;4.90;;;2.50;;
67500;SDS011;54349;52.528;19.760;2022-12-29T03:28:11;4.90;;;2.40;;
67500;SDS011;54349;52.528;19.760;2022-12-29T03:30:45;5.30;;;2.60;;
67500;SDS011;54349;52.528;19.760;2022-12-29T03:33:20;4.00;;;2.30;;
67500;SDS011;54349;52.528;19.760;2022-12-29T03:35:55;6.30;;;2.40;;
67500;SDS011;54349;52.528;19.760;2022-12-29T03:38:36;5.10;;;2.50;;
67500;SDS011;54349;52.528;19.760;2022-12-29T03:41:18;5.00;;;2.60;;
67500;SDS011;54349;52.528;19.760;2022-12-29T03:43:51;4.70;;;2.40;;
67500;SDS011;54349;52.528;19.760;2022-12-29T03:46:19;4.80;;;2.50;;
67500;SDS011;54349;52.528;19.760;2022-12-29T03:48:47;4.60;;;2.30;;
67500;SDS011;54349;52.528;19.760;2022-12-29T03:51:15;5.50;;;2.40;;
67500;SDS011;54349;52.528;19.760;2022-12-29T03:53:45;4.10;;;2.30;;
67500;SDS011;54349;52.528;19.760;2022-12-29T03:56:13;3.80;;;2.40;;
67500;SDS011;54349;52.528;19.760;2022-12-29T03:58:42;4.60;;;2.30;;
67500;SDS011;54349;52.528;19.760;2022-12-29T04:01:15;4.30;;;2.30;;
67500;SDS011;54349;52.528;19.760;2022-12-29T04:03:45;4.60;;;2.30;;
67500;SDS011;54349;52.528;19.760;2022-12-29T04:06:13;5.20;;;2.40;;
67500;SDS011;54349;52.528;19.760;2022-12-29T04:08:53;4.30;;;2.30;;
67500;SDS011;54349;52.528;19.760;2022-12-29T04:11:23;4.90;;;2.40;;
67500;SDS011;54349;52.528;19.760;2022-12-29T04:14:00;5.10;;;2.50;;
67500;SDS011;54349;52.528;19.760;2022-12-29T04:16:30;4.60;;;2.20;;
67500;SDS011;54349;52.528;19.760;2022-12-29T04:18:59;4.80;;;2.20;;
67500;SDS011;54349;52.528;19.760;2022-12-29T04:21:29;5.40;;;2.40;;
67500;SDS011;54349;52.528;19.760;2022-12-29T04:23:58;4.20;;;2.30;;
67500;SDS011;54349;52.528;19.760;2022-12-29T04:26:28;3.90;;;2.20;;
67500;SDS011;54349;52.528;19.760;2022-12-29T04:29:25;4.20;;;2.10;;
67500;SDS011;54349;52.528;19.760;2022-12-29T04:32:15;3.80;;;2.10;;
67500;SDS011;54349;52.528;19.760;2022-12-29T04:34:49;4.50;;;2.60;;
67500;SDS011;54349;52.528;19.760;2022-12-29T04:37:18;4.70;;;2.20;;
67500;SDS011;54349;52.528;19.760;2022-12-29T04:39:46;4.40;;;2.60;;
67500;SDS011;54349;52.528;19.760;2022-12-29T04:42:15;4.60;;;2.20;;
67500;SDS011;54349;52.528;19.760;2022-12-29T04:44:45;4.20;;;2.40;;
67500;SDS011;54349;52.528;19.760;2022-12-29T04:47:37;4.30;;;2.20;;
67500;SDS011;54349;52.528;19.760;2022-12-29T04:50:25;4.70;;;2.50;;
67500;SDS011;54349;52.528;19.760;2022-12-29T04:53:14;3.90;;;2.20;;
67500;SDS011;54349;52.528;19.760;2022-12-29T04:55:47;3.90;;;2.20;;
67500;SDS011;54349;52.528;19.760;2022-12-29T04:58:18;4.40;;;2.20;;
67500;SDS011;54349;52.528;19.760;2022-12-29T05:00:51;4.30;;;2.10;;
67500;SDS011;54349;52.528;19.760;2022-12-29T05:03:22;4.60;;;2.30;;
67500;SDS011;54349;52.528;19.760;2022-12-29T05:05:55;4.00;;;2.20;;
67500;SDS011;54349;52.528;19.760;2022-12-29T05:08:25;4.50;;;2.40;;
67500;SDS011;54349;52.528;19.760;2022-12-29T05:10:57;4.70;;;2.50;;
67500;SDS011;54349;52.528;19.760;2022-12-29T05:13:26;4.10;;;2.40;;
67500;SDS011;54349;52.528;19.760;2022-12-29T05:15:55;5.10;;;2.40;;
67500;SDS011;54349;52.528;19.760;2022-12-29T05:18:24;4.40;;;2.30;;
67500;SDS011;54349;52.528;19.760;2022-12-29T05:20:55;4.20;;;2.20;;
67500;SDS011;54349;52.528;19.760;2022-12-29T05:23:29;4.60;;;2.20;;
67500;SDS011;54349;52.528;19.760;2022-12-29T05:26:04;3.50;;;2.10;;
67500;SDS011;54349;52.528;19.760;2022-12-29T05:28:44;4.00;;;2.10;;
67500;SDS011;54349;52.528;19.760;2022-12-29T05:31:17;5.10;;;2.50;;
67500;SDS011;54349;52.528;19.760;2022-12-29T05:33:46;3.90;;;2.20;;
67500;SDS011;54349;52.528;19.760;2022-12-29T05:36:15;4.20;;;2.20;;
67500;SDS011;54349;52.528;19.760;2022-12-29T05:38:49;3.80;;;2.10;;
67500;SDS011;54349;52.528;19.760;2022-12-29T05:41:18;3.60;;;1.90;;
67500;SDS011;54349;52.528;19.760;2022-12-29T05:43:46;4.50;;;2.30;;
67500;SDS011;54349;52.528;19.760;2022-12-29T05:46:31;4.20;;;2.30;;
67500;SDS011;54349;52.528;19.760;2022-12-29T05:49:19;3.70;;;2.10;;
67500;SDS011;54349;52.528;19.760;2022-12-29T05:52:09;3.80;;;2.20;;
67500;SDS011;54349;52.528;19.760;2022-12-29T05:54:38;4.40;;;2.40;;
67500;SDS011;54349;52.528;19.760;2022-12-29T05:57:11;5.20;;;2.40;;
67500;SDS011;54349;52.528;19.760;2022-12-29T05:59:42;4.00;;;2.00;;
67500;SDS011;54349;52.528;19.760;2022-12-29T06:02:10;4.10;;;2.10;;
67500;SDS011;54349;52.528;19.760;2022-12-29T06:04:39;3.30;;;1.90;;
67500;SDS011;54349;52.528;19.760;2022-12-29T06:07:08;4.30;;;2.40;;
67500;SDS011;54349;52.528;19.760;2022-12-29T06:12:11;4.60;;;2.20;;
67500;SDS011;54349;52.528;19.760;2022-12-29T06:14:42;3.80;;;2.10;;
67500;SDS011;54349;52.528;19.760;2022-12-29T06:17:11;4.70;;;2.20;;
67500;SDS011;54349;52.528;19.760;2022-12-29T06:19:40;3.80;;;2.10;;
67500;SDS011;54349;52.528;19.760;2022-12-29T06:22:08;4.30;;;2.20;;
67500;SDS011;54349;52.528;19.760;2022-12-29T06:24:43;4.50;;;2.10;;
67500;SDS011;54349;52.528;19.760;2022-12-29T06:27:13;3.90;;;2.40;;
67500;SDS011;54349;52.528;19.760;2022-12-29T06:29:41;3.90;;;2.10;;
67500;SDS011;54349;52.528;19.760;2022-12-29T06:32:10;3.60;;;2.10;;
67500;SDS011;54349;52.528;19.760;2022-12-29T06:34:43;4.50;;;2.20;;
67500;SDS011;54349;52.528;19.760;2022-12-29T06:37:13;4.90;;;2.20;;
67500;SDS011;54349;52.528;19.760;2022-12-29T06:39:42;3.30;;;2.00;;
67500;SDS011;54349;52.528;19.760;2022-12-29T06:42:12;3.60;;;2.00;;
67500;SDS011;54349;52.528;19.760;2022-12-29T06:44:40;3.50;;;2.00;;
67500;SDS011;54349;52.528;19.760;2022-12-29T06:47:10;4.00;;;2.20;;
67500;SDS011;54349;52.528;19.760;2022-12-29T06:49:39;2.80;;;1.80;;
67500;SDS011;54349;52.528;19.760;2022-12-29T06:52:07;3.50;;;1.90;;
67500;SDS011;54349;52.528;19.760;2022-12-29T06:54:40;3.30;;;1.80;;
67500;SDS011;54349;52.528;19.760;2022-12-29T06:57:08;3.30;;;1.90;;
67500;SDS011;54349;52.528;19.760;2022-12-29T06:59:36;4.00;;;2.20;;
67500;SDS011;54349;52.528;19.760;2022-12-29T07:02:05;4.10;;;2.10;;
67500;SDS011;54349;52.528;19.760;2022-12-29T07:04:34;3.40;;;2.00;;
67500;SDS011;54349;52.528;19.760;2022-12-29T07:07:02;3.60;;;2.10;;
67500;SDS011;54349;52.528;19.760;2022-12-29T07:09:31;3.20;;;1.90;;
67500;SDS011;54349;52.528;19.760;2022-12-29T07:12:00;4.00;;;2.00;;
67500;SDS011;54349;52.528;19.760;2022-12-29T07:14:29;3.70;;;2.20;;
67500;SDS011;54349;52.528;19.760;2022-12-29T07:16:57;3.10;;;2.00;;
67500;SDS011;54349;52.528;19.760;2022-12-29T07:19:26;3.70;;;1.70;;
67500;SDS011;54349;52.528;19.760;2022-12-29T07:21:54;4.20;;;2.20;;
67500;SDS011;54349;52.528;19.760;2022-12-29T07:24:23;3.30;;;2.10;;
67500;SDS011;54349;52.528;19.760;2022-12-29T07:26:53;2.90;;;2.00;;
67500;SDS011;54349;52.528;19.760;2022-12-29T07:29:22;3.10;;;1.90;;
67500;SDS011;54349;52.528;19.760;2022-12-29T07:31:51;3.30;;;1.90;;
67500;SDS011;54349;52.528;19.760;2022-12-29T07:34:19;4.00;;;2.10;;
67500;SDS011;54349;52.528;19.760;2022-12-29T07:36:48;3.90;;;1.90;;
67500;SDS011;54349;52.528;19.760;2022-12-29T07:39:18;3.50;;;2.00;;
67500;SDS011;54349;52.528;19.760;2022-12-29T07:41:46;2.80;;;1.60;;
67500;SDS011;54349;52.528;19.760;2022-12-29T07:44:20;2.70;;;1.60;;
67500;SDS011;54349;52.528;19.760;2022-12-29T07:47:08;3.80;;;2.00;;
67500;SDS011;54349;52.528;19.760;2022-12-29T07:49:38;4.20;;;2.10;;
67500;SDS011;54349;52.528;19.760;2022-12-29T07:52:07;2.70;;;1.80;;
67500;SDS011;54349;52.528;19.760;2022-12-29T07:54:36;3.70;;;2.20;;
67500;SDS011;54349;52.528;19.760;2022-12-29T07:57:06;2.90;;;1.70;;
67500;SDS011;54349;52.528;19.760;2022-12-29T07:59:34;3.20;;;2.00;;
67500;SDS011;54349;52.528;19.760;2022-12-29T08:02:04;3.60;;;2.10;;
67500;SDS011;54349;52.528;19.760;2022-12-29T08:04:32;3.70;;;2.10;;
67500;SDS011;54349;52.528;19.760;2022-12-29T08:07:01;4.00;;;2.00;;
67500;SDS011;54349;52.528;19.760;2022-12-29T08:09:29;3.30;;;2.00;;
67500;SDS011;54349;52.528;19.760;2022-12-29T08:11:58;3.60;;;2.10;;
67500;SDS011;54349;52.528;19.760;2022-12-29T08:14:27;4.10;;;1.90;;
67500;SDS011;54349;52.528;19.760;2022-12-29T08:16:56;3.70;;;2.20;;
67500;SDS011;54349;52.528;19.760;2022-12-29T08:19:24;3.20;;;1.90;;
67500;SDS011;54349;52.528;19.760;2022-12-29T08:21:53;3.50;;;2.00;;
67500;SDS011;54349;52.528;19.760;2022-12-29T08:24:21;3.20;;;1.80;;
67500;SDS011;54349;52.528;19.760;2022-12-29T08:26:51;3.90;;;1.90;;
67500;SDS011;54349;52.528;19.760;2022-12-29T08:29:19;3.20;;;2.00;;
67500;SDS011;54349;52.528;19.760;2022-12-29T08:31:49;3.60;;;1.70;;
67500;SDS011;54349;52.528;19.760;2022-12-29T08:34:18;3.10;;;1.80;;
67500;SDS011;54349;52.528;19.760;2022-12-29T08:36:46;2.50;;;1.90;;
67500;SDS011;54349;52.528;19.760;2022-12-29T08:39:15;3.50;;;2.00;;
67500;SDS011;54349;52.528;19.760;2022-12-29T08:41:44;3.40;;;2.00;;
67500;SDS011;54349;52.528;19.760;2022-12-29T08:44:12;2.80;;;1.80;;
67500;SDS011;54349;52.528;19.760;2022-12-29T08:46:41;3.10;;;1.70;;
67500;SDS011;54349;52.528;19.760;2022-12-29T08:49:10;3.50;;;1.90;;
67500;SDS011;54349;52.528;19.760;2022-12-29T08:51:39;2.80;;;1.80;;
67500;SDS011;54349;52.528;19.760;2022-12-29T08:54:08;3.00;;;1.80;;
67500;SDS011;54349;52.528;19.760;2022-12-29T08:56:36;3.20;;;1.80;;
67500;SDS011;54349;52.528;19.760;2022-12-29T08:59:05;3.10;;;1.90;;
67500;SDS011;54349;52.528;19.760;2022-12-29T09:01:33;3.20;;;1.90;;
67500;SDS011;54349;52.528;19.760;2022-12-29T09:04:04;3.20;;;1.90;;
67500;SDS011;54349;52.528;19.760;2022-12-29T09:06:44;3.40;;;1.80;;
67500;SDS011;54349;52.528;19.760;2022-12-29T09:09:13;2.80;;;1.70;;
67500;SDS011;54349;52.528;19.760;2022-12-29T09:11:42;3.10;;;1.90;;
67500;SDS011;54349;52.528;19.760;2022-12-29T09:14:11;2.60;;;1.70;;
67500;SDS011;54349;52.528;19.760;2022-12-29T09:16:41;3.10;;;1.70;;
67500;SDS011;54349;52.528;19.760;2022-12-29T09:19:30;3.00;;;1.80;;
67500;SDS011;54349;52.528;19.760;2022-12-29T09:21:58;2.70;;;1.80;;
67500;SDS011;54349;52.528;19.760;2022-12-29T09:24:27;3.20;;;1.90;;
67500;SDS011;54349;52.528;19.760;2022-12-29T09:26:56;2.60;;;1.90;;
67500;SDS011;54349;52.528;19.760;2022-12-29T09:29:24;3.00;;;2.00;;
67500;SDS011;54349;52.528;19.760;2022-12-29T09:31:53;3.30;;;1.80;;
67500;SDS011;54349;52.528;19.760;2022-12-29T09:34:21;3.00;;;1.70;;
67500;SDS011;54349;52.528;19.760;2022-12-29T09:36:51;3.30;;;1.80;;
67500;SDS011;54349;52.528;19.760;2022-12-29T09:39:19;2.90;;;2.00;;
67500;SDS011;54349;52.528;19.760;2022-12-29T09:42:32;2.50;;;1.60;;
67500;SDS011;54349;52.528;19.760;2022-12-29T09:45:25;2.90;;;1.80;;
67500;SDS011;54349;52.528;19.760;2022-12-29T09:48:00;3.10;;;1.70;;
67500;SDS011;54349;52.528;19.760;2022-12-29T09:50:37;2.60;;;1.90;;
67500;SDS011;54349;52.528;19.760;2022-12-29T09:53:17;3.70;;;2.10;;
67500;SDS011;54349;52.528;19.760;2022-12-29T09:56:01;2.60;;;1.70;;
67500;SDS011;54349;52.528;19.760;2022-12-29T09:59:00;3.00;;;1.70;;
67500;SDS011;54349;52.528;19.760;2022-12-29T10:01:41;3.40;;;1.90;;
67500;SDS011;54349;52.528;19.760;2022-12-29T10:04:14;3.00;;;1.90;;
67500;SDS011;54349;52.528;19.760;2022-12-29T10:07:11;3.00;;;1.70;;
67500;SDS011;54349;52.528;19.760;2022-12-29T10:13:27;2.80;;;1.80;;
67500;SDS011;54349;52.528;19.760;2022-12-29T10:16:13;3.60;;;1.80;;
67500;SDS011;54349;52.528;19.760;2022-12-29T10:24:18;2.90;;;1.80;;
67500;SDS011;54349;52.528;19.760;2022-12-29T10:26:51;3.80;;;2.00;;
67500;SDS011;54349;52.528;19.760;2022-12-29T10:29:26;3.20;;;1.80;;
67500;SDS011;54349;52.528;19.760;2022-12-29T10:32:09;3.40;;;1.80;;
67500;SDS011;54349;52.528;19.760;2022-12-29T10:35:07;2.40;;;1.80;;
67500;SDS011;54349;52.528;19.760;2022-12-29T10:38:12;2.90;;;1.80;;
67500;SDS011;54349;52.528;19.760;2022-12-29T10:40:57;2.90;;;1.80;;
67500;SDS011;54349;52.528;19.760;2022-12-29T10:43:45;2.90;;;1.80;;
67500;SDS011;54349;52.528;19.760;2022-12-29T10:46:33;2.90;;;1.70;;
67500;SDS011;54349;52.528;19.760;2022-12-29T10:49:27;3.30;;;1.90;;
67500;SDS011;54349;52.528;19.760;2022-12-29T10:52:00;2.70;;;1.70;;
67500;SDS011;54349;52.528;19.760;2022-12-29T10:54:46;2.50;;;1.60;;
67500;SDS011;54349;52.528;19.760;2022-12-29T10:57:26;3.70;;;2.00;;
67500;SDS011;54349;52.528;19.760;2022-12-29T10:59:57;2.50;;;1.60;;
67500;SDS011;54349;52.528;19.760;2022-12-29T11:05:56;2.90;;;1.70;;
67500;SDS011;54349;52.528;19.760;2022-12-29T11:08:28;2.80;;;1.70;;
67500;SDS011;54349;52.528;19.760;2022-12-29T11:11:05;2.80;;;1.70;;
67500;SDS011;54349;52.528;19.760;2022-12-29T11:13:47;3.90;;;1.90;;
67500;SDS011;54349;52.528;19.760;2022-12-29T11:16:30;3.70;;;1.80;;
67500;SDS011;54349;52.528;19.760;2022-12-29T11:19:02;3.80;;;2.10;;
67500;SDS011;54349;52.528;19.760;2022-12-29T11:21:37;2.40;;;1.70;;
67500;SDS011;54349;52.528;19.760;2022-12-29T11:24:25;3.00;;;1.90;;
67500;SDS011;54349;52.528;19.760;2022-12-29T11:27:18;3.30;;;1.80;;
67500;SDS011;54349;52.528;19.760;2022-12-29T11:29:52;3.00;;;1.70;;
67500;SDS011;54349;52.528;19.760;2022-12-29T11:32:24;3.70;;;1.90;;
67500;SDS011;54349;52.528;19.760;2022-12-29T11:34:57;2.70;;;1.80;;
67500;SDS011;54349;52.528;19.760;2022-12-29T11:40:06;2.90;;;1.80;;
67500;SDS011;54349;52.528;19.760;2022-12-29T11:42:51;3.80;;;1.90;;
67500;SDS011;54349;52.528;19.760;2022-12-29T11:45:29;3.70;;;1.90;;
67500;SDS011;54349;52.528;19.760;2022-12-29T11:48:16;4.50;;;1.90;;
67500;SDS011;54349;52.528;19.760;2022-12-29T11:50:58;3.00;;;1.80;;
67500;SDS011;54349;52.528;19.760;2022-12-29T11:53:38;4.10;;;1.90;;
67500;SDS011;54349;52.528;19.760;2022-12-29T11:56:17;3.00;;;1.80;;
67500;SDS011;54349;52.528;19.760;2022-12-29T11:58:50;2.80;;;1.70;;
67500;SDS011;54349;52.528;19.760;2022-12-29T12:01:37;2.20;;;1.60;;
67500;SDS011;54349;52.528;19.760;2022-12-29T12:04:14;2.30;;;1.60;;
67500;SDS011;54349;52.528;19.760;2022-12-29T12:07:18;2.80;;;1.80;;
67500;SDS011;54349;52.528;19.760;2022-12-29T12:09:54;3.40;;;2.00;;
67500;SDS011;54349;52.528;19.760;2022-12-29T12:15:44;3.50;;;1.90;;
67500;SDS011;54349;52.528;19.760;2022-12-29T12:18:47;3.30;;;1.90;;
67500;SDS011;54349;52.528;19.760;2022-12-29T12:21:23;3.50;;;1.90;;
67500;SDS011;54349;52.528;19.760;2022-12-29T12:30:15;3.10;;;1.70;;
67500;SDS011;54349;52.528;19.760;2022-12-29T12:35:44;2.90;;;1.80;;
67500;SDS011;54349;52.528;19.760;2022-12-29T12:39:17;3.40;;;1.90;;
67500;SDS011;54349;52.528;19.760;2022-12-29T12:48:11;3.10;;;2.00;;
67500;SDS011;54349;52.528;19.760;2022-12-29T12:53:35;3.00;;;1.80;;
67500;SDS011;54349;52.528;19.760;2022-12-29T13:02:06;3.20;;;1.90;;
67500;SDS011;54349;52.528;19.760;2022-12-29T13:11:34;3.90;;;1.90;;
67500;SDS011;54349;52.528;19.760;2022-12-29T13:17:25;3.20;;;2.00;;
67500;SDS011;54349;52.528;19.760;2022-12-29T13:20:31;3.80;;;2.00;;
67500;SDS011;54349;52.528;19.760;2022-12-29T13:26:22;3.10;;;2.00;;
67500;SDS011;54349;52.528;19.760;2022-12-29T13:38:45;3.80;;;2.00;;
67500;SDS011;54349;52.528;19.760;2022-12-29T13:41:43;3.20;;;1.80;;
67500;SDS011;54349;52.528;19.760;2022-12-29T13:44:17;3.70;;;1.80;;
67500;SDS011;54349;52.528;19.760;2022-12-29T13:47:20;3.50;;;2.00;;
67500;SDS011;54349;52.528;19.760;2022-12-29T13:49:57;3.70;;;2.00;;
67500;SDS011;54349;52.528;19.760;2022-12-29T13:52:40;2.90;;;1.90;;
67500;SDS011;54349;52.528;19.760;2022-12-29T13:55:26;3.10;;;1.80;;
67500;SDS011;54349;52.528;19.760;2022-12-29T14:06:29;2.80;;;1.80;;
67500;SDS011;54349;52.528;19.760;2022-12-29T14:09:03;3.60;;;2.10;;
67500;SDS011;54349;52.528;19.760;2022-12-29T14:11:39;4.20;;;2.20;;
67500;SDS011;54349;52.528;19.760;2022-12-29T14:14:33;3.10;;;1.80;;
67500;SDS011;54349;52.528;19.760;2022-12-29T14:17:09;3.80;;;2.10;;
67500;SDS011;54349;52.528;19.760;2022-12-29T14:19:43;3.60;;;1.90;;
67500;SDS011;54349;52.528;19.760;2022-12-29T14:22:13;4.00;;;2.00;;
67500;SDS011;54349;52.528;19.760;2022-12-29T14:25:00;3.50;;;2.00;;
67500;SDS011;54349;52.528;19.760;2022-12-29T14:29:56;3.90;;;2.00;;
67500;SDS011;54349;52.528;19.760;2022-12-29T14:34:55;3.70;;;2.00;;
67500;SDS011;54349;52.528;19.760;2022-12-29T14:37:27;4.10;;;2.00;;
67500;SDS011;54349;52.528;19.760;2022-12-29T14:42:55;3.60;;;2.00;;
67500;SDS011;54349;52.528;19.760;2022-12-29T14:45:29;3.60;;;2.10;;
67500;SDS011;54349;52.528;19.760;2022-12-29T14:48:00;3.40;;;2.10;;
67500;SDS011;54349;52.528;19.760;2022-12-29T14:50:42;3.40;;;2.10;;
67500;SDS011;54349;52.528;19.760;2022-12-29T14:56:14;3.40;;;2.00;;
67500;SDS011;54349;52.528;19.760;2022-12-29T15:01:23;3.50;;;2.00;;
67500;SDS011;54349;52.528;19.760;2022-12-29T15:04:38;3.70;;;2.10;;
67500;SDS011;54349;52.528;19.760;2022-12-29T15:07:09;2.80;;;1.70;;
67500;SDS011;54349;52.528;19.760;2022-12-29T15:09:58;4.70;;;2.20;;
67500;SDS011;54349;52.528;19.760;2022-12-29T15:12:47;3.40;;;2.10;;
67500;SDS011;54349;52.528;19.760;2022-12-29T15:15:25;3.70;;;2.10;;
67500;SDS011;54349;52.528;19.760;2022-12-29T15:28:45;3.40;;;2.10;;
67500;SDS011;54349;52.528;19.760;2022-12-29T15:31:19;3.00;;;1.90;;
67500;SDS011;54349;52.528;19.760;2022-12-29T15:34:10;3.40;;;1.90;;
67500;SDS011;54349;52.528;19.760;2022-12-29T15:36:40;4.00;;;2.10;;
67500;SDS011;54349;52.528;19.760;2022-12-29T15:39:38;5.40;;;2.20;;
67500;SDS011;54349;52.528;19.760;2022-12-29T15:42:29;4.20;;;2.10;;
67500;SDS011;54349;52.528;19.760;2022-12-29T15:45:15;4.00;;;2.20;;
67500;SDS011;54349;52.528;19.760;2022-12-29T15:47:45;3.90;;;2.10;;
67500;SDS011;54349;52.528;19.760;2022-12-29T15:50:26;4.30;;;2.10;;
67500;SDS011;54349;52.528;19.760;2022-12-29T15:52:58;4.90;;;2.30;;
67500;SDS011;54349;52.528;19.760;2022-12-29T15:55:36;3.40;;;2.00;;
67500;SDS011;54349;52.528;19.760;2022-12-29T15:58:26;4.40;;;2.10;;
67500;SDS011;54349;52.528;19.760;2022-12-29T16:00:59;3.60;;;1.90;;
67500;SDS011;54349;52.528;19.760;2022-12-29T16:03:33;3.50;;;2.00;;
67500;SDS011;54349;52.528;19.760;2022-12-29T16:06:37;3.10;;;2.00;;
67500;SDS011;54349;52.528;19.760;2022-12-29T16:09:17;4.10;;;2.10;;
67500;SDS011;54349;52.528;19.760;2022-12-29T16:11:53;3.50;;;2.10;;
67500;SDS011;54349;52.528;19.760;2022-12-29T16:14:49;4.60;;;2.10;;
67500;SDS011;54349;52.528;19.760;2022-12-29T16:17:29;3.20;;;2.00;;
67500;SDS011;54349;52.528;19.760;2022-12-29T16:20:03;3.80;;;2.10;;
67500;SDS011;54349;52.528;19.760;2022-12-29T16:22:51;4.50;;;2.20;;
67500;SDS011;54349;52.528;19.760;2022-12-29T16:25:31;3.20;;;2.10;;
67500;SDS011;54349;52.528;19.760;2022-12-29T16:28:18;3.10;;;2.00;;
67500;SDS011;54349;52.528;19.760;2022-12-29T16:31:06;5.10;;;2.20;;
67500;SDS011;54349;52.528;19.760;2022-12-29T16:33:49;3.90;;;2.10;;
67500;SDS011;54349;52.528;19.760;2022-12-29T16:36:33;3.30;;;2.00;;
67500;SDS011;54349;52.528;19.760;2022-12-29T16:39:20;3.50;;;2.10;;
67500;SDS011;54349;52.528;19.760;2022-12-29T16:41:54;3.50;;;2.00;;
67500;SDS011;54349;52.528;19.760;2022-12-29T16:44:28;3.00;;;2.00;;
67500;SDS011;54349;52.528;19.760;2022-12-29T16:49:43;3.70;;;2.00;;
67500;SDS011;54349;52.528;19.760;2022-12-29T16:52:25;3.60;;;2.10;;
67500;SDS011;54349;52.528;19.760;2022-12-29T16:55:01;4.80;;;2.30;;
67500;SDS011;54349;52.528;19.760;2022-12-29T16:57:33;3.70;;;2.20;;
67500;SDS011;54349;52.528;19.760;2022-12-29T17:00:07;4.70;;;1.90;;
67500;SDS011;54349;52.528;19.760;2022-12-29T17:02:54;5.50;;;2.20;;
67500;SDS011;54349;52.528;19.760;2022-12-29T17:05:27;3.50;;;2.00;;
67500;SDS011;54349;52.528;19.760;2022-12-29T17:07:56;3.40;;;2.00;;
67500;SDS011;54349;52.528;19.760;2022-12-29T17:10:33;3.70;;;2.20;;
67500;SDS011;54349;52.528;19.760;2022-12-29T17:13:21;3.10;;;2.10;;
67500;SDS011;54349;52.528;19.760;2022-12-29T17:15:51;4.10;;;2.20;;
67500;SDS011;54349;52.528;19.760;2022-12-29T17:18:20;3.00;;;2.00;;
67500;SDS011;54349;52.528;19.760;2022-12-29T17:20:50;3.70;;;2.10;;
67500;SDS011;54349;52.528;19.760;2022-12-29T17:23:19;4.30;;;2.20;;
67500;SDS011;54349;52.528;19.760;2022-12-29T17:25:54;4.60;;;2.30;;
67500;SDS011;54349;52.528;19.760;2022-12-29T17:28:27;4.30;;;2.00;;
67500;SDS011;54349;52.528;19.760;2022-12-29T17:31:02;3.90;;;2.10;;
67500;SDS011;54349;52.528;19.760;2022-12-29T17:33:36;3.90;;;1.90;;
67500;SDS011;54349;52.528;19.760;2022-12-29T17:36:10;3.10;;;1.80;;
67500;SDS011;54349;52.528;19.760;2022-12-29T17:38:39;4.40;;;2.10;;
67500;SDS011;54349;52.528;19.760;2022-12-29T17:41:13;4.40;;;2.00;;
67500;SDS011;54349;52.528;19.760;2022-12-29T17:46:11;3.50;;;2.00;;
67500;SDS011;54349;52.528;19.760;2022-12-29T17:48:40;2.70;;;1.70;;
67500;SDS011;54349;52.528;19.760;2022-12-29T17:51:12;3.70;;;2.10;;